Time;durP1;ratioP1;P1;durP2;ratioP2;P2;SDS_P1;SDS_P2;PMS_P1;PMS_P2;Temp;Humidity;BMP_temperature;BMP_pressure;BME280_temperature;BME280_humidity;BME280_pressure;Samples;Min_cycle;Max_cycle;Signal;HPM_P1;HPM_P2
2021/12/26 00:01:06;;;;;;;3.88;2.60;;;;;;;-9.96;71.19;98021.31;4870941;29;20029;-59
2021/12/26 00:03:34;;;;;;;5.35;2.80;;;;;;;-9.41;72.26;98101.53;4859885;29;20033;-60
2021/12/26 00:06:06;;;;;;;6.57;3.08;;;;;;;-9.74;71.73;98050.38;4854160;29;20041;-60
2021/12/26 00:08:33;;;;;;;3.75;2.63;;;;;;;-9.49;72.52;98085.38;4854268;29;20337;-59
2021/12/26 00:10:58;;;;;;;3.65;2.80;;;;;;;-9.34;74.41;98088.38;4869552;29;20245;-59
2021/12/26 00:13:24;;;;;;;4.55;2.67;;;;;;;-9.25;73.11;98071.13;4870722;29;20033;-59
2021/12/26 00:15:50;;;;;;;3.92;2.97;;;;;;;-9.21;72.67;98069.56;4869042;29;20062;-59
2021/12/26 00:18:15;;;;;;;5.15;2.78;;;;;;;-9.22;73.38;98062.84;4840061;29;20214;-60
2021/12/26 00:20:41;;;;;;;4.90;2.75;;;;;;;-9.27;73.59;98066.88;4870682;29;20038;-60
2021/12/26 00:23:08;;;;;;;6.75;3.30;;;;;;;-9.15;73.49;98066.38;4869304;29;20316;-59
2021/12/26 00:25:34;;;;;;;4.55;3.30;;;;;;;-9.16;74.45;98077.22;4869039;29;20100;-59
2021/12/26 00:28:01;;;;;;;4.90;2.90;;;;;;;-9.13;74.15;98069.81;4870468;29;20033;-60
2021/12/26 00:30:27;;;;;;;4.20;3.35;;;;;;;-9.10;74.64;98078.25;4870695;29;20401;-59
2021/12/26 00:32:52;;;;;;;4.13;2.97;;;;;;;-9.00;73.46;98079.38;4870264;29;20061;-59
2021/12/26 00:35:20;;;;;;;5.07;3.00;;;;;;;-9.00;73.51;98058.50;4854903;29;20100;-58
2021/12/26 00:37:46;;;;;;;5.25;3.30;;;;;;;-8.99;75.04;98066.06;4870298;29;20025;-60
2021/12/26 00:40:13;;;;;;;3.85;2.67;;;;;;;-8.94;75.00;98071.19;4869086;29;20041;-58
2021/12/26 00:42:39;;;;;;;4.43;3.05;;;;;;;-8.87;75.23;98046.31;4870052;29;20109;-58
2021/12/26 00:45:06;;;;;;;4.22;2.72;;;;;;;-8.80;75.98;98059.06;4869052;29;20026;-58
2021/12/26 00:47:33;;;;;;;4.43;2.80;;;;;;;-8.71;75.87;98059.31;4854490;29;20037;-57
2021/12/26 00:50:01;;;;;;;4.00;2.55;;;;;;;-8.71;75.90;98071.84;4869964;29;20068;-57
2021/12/26 00:52:26;;;;;;;3.63;2.88;;;;;;;-8.58;75.81;98063.88;4870014;29;20041;-58
2021/12/26 00:54:53;;;;;;;3.50;2.70;;;;;;;-8.61;76.89;98075.47;4870177;29;20022;-58
2021/12/26 00:57:19;;;;;;;5.03;3.17;;;;;;;-8.65;76.31;98069.50;4870125;29;20278;-58
2021/12/26 00:59:45;;;;;;;4.18;2.92;;;;;;;-8.67;76.77;98061.94;4869456;29;20040;-58
2021/12/26 01:02:10;;;;;;;4.22;3.15;;;;;;;-8.64;76.68;98051.16;4869774;29;20222;-58
2021/12/26 01:04:39;;;;;;;3.78;2.85;;;;;;;-8.50;76.17;98066.59;4853962;29;20203;-57
2021/12/26 01:07:12;;;;;;;3.85;2.70;;;;;;;-8.55;75.88;98060.59;4869598;29;20021;-57
2021/12/26 01:09:38;;;;;;;4.85;3.28;;;;;;;-8.44;76.01;98053.38;4869490;29;20037;-59
2021/12/26 01:12:12;;;;;;;5.15;3.28;;;;;;;-8.45;76.16;98049.16;4869580;29;20258;-58
2021/12/26 01:14:46;;;;;;;4.13;2.80;;;;;;;-8.45;75.48;98045.00;4869569;29;20037;-58
2021/12/26 01:17:15;;;;;;;3.70;2.70;;;;;;;-8.48;75.60;98029.00;4869317;29;20036;-59
2021/12/26 01:19:47;;;;;;;4.15;3.00;;;;;;;-8.35;75.63;98033.47;4869630;29;20044;-60
2021/12/26 01:22:15;;;;;;;4.43;2.80;;;;;;;-8.31;75.50;98040.28;4869416;29;20229;-59
2021/12/26 01:24:41;;;;;;;3.90;3.00;;;;;;;-8.28;75.46;98035.34;4853331;29;20029;-60
2021/12/26 01:27:07;;;;;;;5.10;2.90;;;;;;;-8.32;76.36;98036.94;4868416;29;20029;-60
2021/12/26 01:29:36;;;;;;;4.00;3.08;;;;;;;-8.27;76.18;98034.53;4869704;29;20070;-60
2021/12/26 01:32:04;;;;;;;3.33;2.78;;;;;;;-8.61;74.76;97965.09;4868689;29;20108;-59
2021/12/26 01:34:30;;;;;;;3.95;2.80;;;;;;;-8.36;74.83;98010.06;4869058;29;20036;-60
2021/12/26 01:36:56;;;;;;;4.43;2.78;;;;;;;-8.30;75.20;98001.84;4868425;29;20029;-59
2021/12/26 01:39:22;;;;;;;4.25;2.70;;;;;;;-8.18;75.50;98009.69;4868539;29;20037;-59
2021/12/26 01:41:49;;;;;;;3.97;3.03;;;;;;;-8.28;76.02;98006.91;4852841;29;20357;-59
2021/12/26 01:44:15;;;;;;;4.32;2.90;;;;;;;-8.24;75.83;98001.97;4855232;29;20321;-61
2021/12/26 01:46:43;;;;;;;4.10;2.92;;;;;;;-8.21;75.33;97991.16;4869437;29;20249;-60
2021/12/26 01:49:13;;;;;;;3.88;2.90;;;;;;;-8.50;75.10;97964.53;4869512;29;20033;-60
2021/12/26 01:51:40;;;;;;;3.20;2.72;;;;;;;-8.19;75.32;98028.06;4869526;29;20206;-60
2021/12/26 01:54:09;;;;;;;4.90;3.05;;;;;;;-8.45;75.15;97973.84;4851864;29;20029;-61
2021/12/26 01:56:37;;;;;;;6.57;3.95;;;;;;;-8.55;76.24;97955.19;4853016;29;20089;-60
2021/12/26 01:59:06;;;;;;;5.63;3.13;;;;;;;-8.65;75.81;97939.06;4853971;29;20160;-60
2021/12/26 02:01:32;;;;;;;3.25;2.88;;;;;;;-8.20;76.26;98013.81;4869721;29;20101;-60
2021/12/26 02:03:59;;;;;;;4.38;3.28;;;;;;;-8.54;76.07;97941.84;4868867;29;20049;-59
2021/12/26 02:06:25;;;;;;;3.33;2.78;;;;;;;-8.28;76.54;97992.66;4869455;29;20212;-59
2021/12/26 02:08:50;;;;;;;4.70;3.00;;;;;;;-8.24;76.30;97989.44;4869379;29;20033;-58
2021/12/26 02:11:17;;;;;;;5.05;3.08;;;;;;;-8.19;76.36;97987.91;4868147;29;20029;-58
2021/12/26 02:13:43;;;;;;;6.25;3.05;;;;;;;-8.19;76.41;98000.44;4852662;29;20029;-58
2021/12/26 02:16:11;;;;;;;5.63;3.00;;;;;;;-8.27;77.02;97999.41;4869379;29;20209;-59
2021/12/26 02:18:37;;;;;;;5.22;3.30;;;;;;;-8.11;76.49;98000.63;4869437;29;20040;-58
2021/12/26 02:23:37;;;;;;;4.35;3.03;;;;;;;-8.10;76.66;97997.31;4869377;29;20096;-58
2021/12/26 02:28:41;;;;;;;3.67;3.25;;;;;;;-8.21;76.62;97978.63;4869115;29;20092;-58
2021/12/26 02:31:06;;;;;;;3.67;3.15;;;;;;;-8.17;76.72;97992.94;4869024;29;20061;-59
2021/12/26 02:33:33;;;;;;;5.75;3.50;;;;;;;-8.21;77.40;97982.00;4867820;29;20097;-59
2021/12/26 02:35:59;;;;;;;4.93;3.15;;;;;;;-8.22;77.83;97990.34;4853673;29;20091;-59
2021/12/26 02:38:24;;;;;;;6.57;3.47;;;;;;;-8.17;76.54;97995.47;4868692;29;20325;-59
2021/12/26 02:40:53;;;;;;;4.53;3.67;;;;;;;-8.20;77.38;97986.19;4872224;29;20330;-59
2021/12/26 02:43:21;;;;;;;4.95;3.50;;;;;;;-8.45;77.67;97941.22;4872239;29;20198;-59
2021/12/26 02:45:47;;;;;;;7.13;3.60;;;;;;;-8.11;77.82;97984.72;4871366;29;20022;-59
2021/12/26 02:48:13;;;;;;;5.03;3.63;;;;;;;-8.11;77.42;97982.22;4872441;29;20045;-59
2021/12/26 02:50:40;;;;;;;6.45;3.65;;;;;;;-7.95;76.69;97986.81;4856358;29;20068;-59
2021/12/26 02:53:09;;;;;;;3.85;3.35;;;;;;;-8.27;77.43;97904.00;4872008;29;20029;-60
2021/12/26 02:55:35;;;;;;;5.93;3.42;;;;;;;-7.84;76.54;97974.50;4871438;29;20034;-60
2021/12/26 02:58:04;;;;;;;5.13;3.55;;;;;;;-7.95;76.82;97971.75;4856959;29;20142;-60
2021/12/26 03:00:34;;;;;;;4.68;3.40;;;;;;;-7.92;77.04;97984.38;4871960;29;20045;-59
2021/12/26 03:03:02;;;;;;;5.10;3.50;;;;;;;-8.29;76.96;97907.28;4871707;29;20041;-58
2021/12/26 03:05:42;;;;;;;3.67;3.03;;;;;;;-8.35;77.39;97887.91;4871922;29;20187;-59
2021/12/26 03:08:11;;;;;;;5.35;3.40;;;;;;;-8.36;77.88;97899.63;4871881;29;20049;-58
2021/12/26 03:10:39;;;;;;;6.20;3.47;;;;;;;-7.96;78.02;97966.69;4871615;29;20318;-58
2021/12/26 03:13:08;;;;;;;7.38;3.92;;;;;;;-7.97;78.84;97953.25;4871387;29;20034;-59
2021/12/26 03:15:34;;;;;;;3.58;2.95;;;;;;;-8.03;78.96;97953.97;4871907;29;20092;-60
2021/12/26 03:18:02;;;;;;;4.50;3.00;;;;;;;-8.40;78.54;97902.03;4871492;29;20025;-59
2021/12/26 03:20:31;;;;;;;5.00;3.10;;;;;;;-8.11;79.08;97935.34;4871811;29;20040;-59
2021/12/26 03:23:01;;;;;;;5.57;3.50;;;;;;;-8.32;78.75;97896.38;4854983;29;20040;-59
2021/12/26 03:25:32;;;;;;;4.43;3.05;;;;;;;-7.86;78.01;97951.84;4869354;29;20049;-59
2021/12/26 03:27:58;;;;;;;5.65;3.38;;;;;;;-7.92;77.65;97946.69;4865868;29;20029;-58
2021/12/26 03:30:26;;;;;;;6.65;4.07;;;;;;;-8.00;78.05;97946.50;4867133;29;20029;-58
2021/12/26 03:32:54;;;;;;;10.10;5.68;;;;;;;-8.02;78.57;97949.81;4853601;29;20026;-59
2021/12/26 03:35:22;;;;;;;7.97;5.18;;;;;;;-8.38;78.95;97875.28;4852954;29;20037;-58
2021/12/26 03:37:47;;;;;;;18.25;11.60;;;;;;;-8.01;78.11;97929.75;4876544;29;20329;-58
2021/12/26 03:40:13;;;;;;;18.83;13.20;;;;;;;-7.99;77.54;97924.75;4876004;29;20081;-59
2021/12/26 03:42:39;;;;;;;21.17;13.20;;;;;;;-8.12;78.67;97948.72;4871291;29;20033;-60
2021/12/26 03:45:08;;;;;;;26.00;13.73;;;;;;;-8.27;78.43;97875.56;4882817;29;20026;-60
2021/12/26 03:47:35;;;;;;;14.02;10.13;;;;;;;-8.13;78.25;97936.97;4870128;29;20175;-60
2021/12/26 03:50:02;;;;;;;15.50;9.07;;;;;;;-8.03;79.02;97933.88;4869743;29;20085;-60
2021/12/26 03:52:28;;;;;;;17.63;9.25;;;;;;;-7.98;78.72;97932.31;4853897;29;20040;-59
2021/12/26 03:54:54;;;;;;;14.73;9.05;;;;;;;-8.01;78.67;97938.94;4869344;29;20025;-59
2021/12/26 03:57:20;;;;;;;16.33;7.13;;;;;;;-7.92;78.68;97950.84;4869486;29;20337;-59
2021/12/26 03:59:47;;;;;;;5.38;4.43;;;;;;;-7.92;78.92;97941.66;4868570;29;20254;-59
2021/12/26 04:02:13;;;;;;;5.95;4.18;;;;;;;-7.97;79.48;97945.72;4869351;29;20037;-59
2021/12/26 04:04:39;;;;;;;5.60;3.72;;;;;;;-7.90;80.08;97934.16;4852773;29;20022;-60
2021/12/26 04:07:05;;;;;;;5.47;3.45;;;;;;;-7.85;78.62;97932.59;4854055;29;20069;-59
2021/12/26 04:09:31;;;;;;;4.18;3.10;;;;;;;-7.72;78.41;97944.63;4870194;29;20025;-59
2021/12/26 04:11:56;;;;;;;7.13;3.30;;;;;;;-7.58;78.56;97934.91;4869769;29;20029;-59
2021/12/26 04:14:22;;;;;;;5.68;3.00;;;;;;;-7.53;78.20;97940.84;4869944;29;20330;-58
2021/12/26 04:16:48;;;;;;;4.38;2.83;;;;;;;-7.59;78.49;97945.75;4870900;29;20038;-58
2021/12/26 04:19:14;;;;;;;6.20;3.40;;;;;;;-7.50;78.70;97945.09;4857706;29;20346;-59
2021/12/26 04:21:39;;;;;;;4.90;3.05;;;;;;;-7.38;78.92;97944.50;4867451;29;20053;-58
2021/12/26 04:24:06;;;;;;;4.30;2.90;;;;;;;-7.46;79.06;97939.34;4869452;29;20078;-58
2021/12/26 04:26:33;;;;;;;9.32;5.20;;;;;;;-7.46;78.93;97937.66;4870384;29;20029;-59
2021/12/26 04:28:58;;;;;;;4.15;2.80;;;;;;;-7.47;78.92;97920.91;4870034;29;20057;-58
2021/12/26 04:31:24;;;;;;;3.88;3.03;;;;;;;-7.41;78.66;97930.25;4870486;29;20070;-58
2021/12/26 04:33:50;;;;;;;5.45;3.28;;;;;;;-7.34;79.27;97911.09;4870082;29;20021;-59
2021/12/26 04:36:17;;;;;;;5.63;3.42;;;;;;;-7.37;78.24;97924.44;4870773;29;20025;-59
2021/12/26 04:38:43;;;;;;;5.25;3.15;;;;;;;-7.32;77.88;97919.53;4869401;29;20040;-59
2021/12/26 04:41:10;;;;;;;4.63;3.03;;;;;;;-7.21;78.41;97917.22;4869751;29;20057;-60
2021/12/26 04:43:37;;;;;;;3.90;2.80;;;;;;;-7.44;78.85;97925.13;4870160;29;20041;-59
2021/12/26 04:46:07;;;;;;;6.47;3.50;;;;;;;-7.73;78.42;97849.13;4870184;29;20081;-59
2021/12/26 04:48:38;;;;;;;3.73;2.73;;;;;;;-7.33;78.36;97916.13;4870222;29;20044;-59
2021/12/26 04:51:05;;;;;;;6.57;3.03;;;;;;;-7.35;78.71;97906.88;4869189;29;20033;-60
2021/12/26 04:53:31;;;;;;;5.90;3.47;;;;;;;-7.27;78.55;97907.88;4869917;29;20060;-60
2021/12/26 04:55:57;;;;;;;4.57;3.00;;;;;;;-7.26;78.85;97924.66;4864022;29;20033;-59
2021/12/26 04:58:22;;;;;;;4.95;3.13;;;;;;;-7.29;78.13;97915.38;4868761;29;20021;-60
2021/12/26 05:00:48;;;;;;;6.25;2.72;;;;;;;-7.15;78.75;97918.19;4869091;29;20227;-60
2021/12/26 05:03:14;;;;;;;4.68;3.30;;;;;;;-7.05;78.69;97931.81;4868824;29;20056;-60
2021/12/26 05:05:40;;;;;;;7.18;3.05;;;;;;;-7.24;78.10;97933.06;4870366;29;20037;-60
2021/12/26 05:08:06;;;;;;;6.53;3.20;;;;;;;-7.11;77.96;97954.31;4854157;29;20082;-60
2021/12/26 05:10:32;;;;;;;6.47;2.97;;;;;;;-7.15;78.13;97927.41;4869935;29;20092;-59
2021/12/26 05:13:00;;;;;;;6.78;3.50;;;;;;;-7.26;78.12;97911.25;4869577;29;20106;-60
2021/12/26 05:15:27;;;;;;;4.13;2.85;;;;;;;-7.08;77.61;97934.25;4868774;29;20096;-60
2021/12/26 05:17:54;;;;;;;5.38;3.00;;;;;;;-7.16;77.15;97936.59;4868743;29;20033;-60
2021/12/26 05:20:21;;;;;;;6.47;3.20;;;;;;;-7.04;78.09;97965.34;4868680;29;20025;-59
2021/12/26 05:22:48;;;;;;;4.88;3.00;;;;;;;-7.13;78.06;97943.38;4869569;29;20041;-60
2021/12/26 05:25:14;;;;;;;4.57;3.20;;;;;;;-6.99;78.40;97948.69;4869750;29;20037;-59
2021/12/26 05:27:41;;;;;;;5.07;3.17;;;;;;;-6.98;77.73;97951.22;4869638;29;20041;-61
2021/12/26 05:30:11;;;;;;;4.68;3.15;;;;;;;-7.35;76.90;97889.28;4869672;29;20072;-62
2021/12/26 05:32:37;;;;;;;4.53;2.90;;;;;;;-6.90;77.94;97933.75;4853984;29;20068;-60
2021/12/26 05:35:03;;;;;;;6.03;3.42;;;;;;;-6.80;77.68;97943.19;4869682;29;20033;-59
2021/12/26 05:37:29;;;;;;;5.20;3.22;;;;;;;-6.77;77.88;97943.25;4869658;29;20195;-60
2021/12/26 05:39:56;;;;;;;5.35;3.65;;;;;;;-6.70;77.76;97934.13;4869524;29;20076;-60
2021/12/26 05:42:24;;;;;;;6.82;3.67;;;;;;;-6.59;77.83;97940.22;4868685;29;20065;-60
2021/12/26 05:44:49;;;;;;;5.18;3.33;;;;;;;-6.72;76.75;97932.44;4869594;29;20092;-60
2021/12/26 05:47:15;;;;;;;5.30;3.25;;;;;;;-6.79;76.83;97934.81;4868371;29;20033;-61
2021/12/26 05:49:42;;;;;;;5.97;3.47;;;;;;;-6.67;78.07;97934.22;4870485;29;20229;-59
2021/12/26 05:52:08;;;;;;;4.32;2.80;;;;;;;-6.90;77.88;97912.78;4852934;29;20138;-60
2021/12/26 05:54:34;;;;;;;8.95;2.90;;;;;;;-6.76;78.36;97932.34;4868393;29;20034;-60
2021/12/26 05:57:00;;;;;;;3.75;3.17;;;;;;;-6.76;77.65;97932.34;4869357;29;20041;-60
2021/12/26 05:59:26;;;;;;;10.05;4.07;;;;;;;-6.64;77.69;97925.84;4869389;29;20030;-60
2021/12/26 06:01:51;;;;;;;7.75;3.55;;;;;;;-6.61;77.71;97933.47;4852522;29;20045;-59
2021/12/26 06:04:17;;;;;;;6.35;3.22;;;;;;;-6.67;76.87;97926.66;4852574;29;20034;-60
2021/12/26 06:06:46;;;;;;;5.13;3.20;;;;;;;-6.73;78.06;97929.03;4851939;29;20022;-59
2021/12/26 06:09:12;;;;;;;5.03;3.05;;;;;;;-6.69;78.10;97922.41;4864366;29;20314;-59
2021/12/26 06:11:38;;;;;;;5.72;3.30;;;;;;;-6.64;77.08;97921.69;4855634;29;20040;-57
2021/12/26 06:14:04;;;;;;;5.93;3.15;;;;;;;-6.74;78.51;97929.00;4870180;29;20314;-58
2021/12/26 06:16:30;;;;;;;8.13;3.95;;;;;;;-6.71;79.23;97919.00;4872445;29;20226;-58
2021/12/26 06:18:56;;;;;;;6.45;3.42;;;;;;;-6.62;79.39;97920.03;4872580;29;20021;-58
2021/12/26 06:21:22;;;;;;;5.93;4.13;;;;;;;-6.57;80.10;97921.78;4872260;29;20033;-59
2021/12/26 06:23:50;;;;;;;5.28;3.28;;;;;;;-6.72;79.64;97924.88;4871785;29;20045;-59
2021/12/26 06:26:20;;;;;;;7.07;3.35;;;;;;;-6.77;80.05;97932.31;4872302;29;20202;-59
2021/12/26 06:28:46;;;;;;;6.43;3.55;;;;;;;-6.68;79.12;97924.94;4872475;29;20034;-59
2021/12/26 06:31:12;;;;;;;6.20;3.33;;;;;;;-6.77;78.41;97919.72;4839693;29;20033;-59
2021/12/26 06:33:39;;;;;;;6.95;3.35;;;;;;;-6.69;78.67;97909.81;4856177;29;20341;-58
2021/12/26 06:36:05;;;;;;;4.90;2.97;;;;;;;-6.58;77.68;97931.00;4855828;29;20032;-58
2021/12/26 06:38:34;;;;;;;4.55;3.03;;;;;;;-6.59;77.18;97926.78;4872365;29;20056;-60
2021/12/26 06:41:01;;;;;;;5.97;3.67;;;;;;;-6.43;77.18;97915.31;4872147;29;20256;-59
2021/12/26 06:43:27;;;;;;;7.18;2.75;;;;;;;-6.48;77.62;97916.91;4871403;29;20029;-59
2021/12/26 06:45:53;;;;;;;6.15;3.05;;;;;;;-6.57;75.99;97914.22;4872350;29;20024;-58
2021/12/26 06:48:19;;;;;;;8.20;3.40;;;;;;;-6.56;77.13;97913.41;4872121;29;20034;-58
2021/12/26 06:50:46;;;;;;;5.97;3.15;;;;;;;-6.50;77.16;97906.81;4871370;29;20424;-58
2021/12/26 06:53:12;;;;;;;8.43;3.67;;;;;;;-6.42;77.16;97895.19;4872083;29;20040;-59
2021/12/26 06:55:38;;;;;;;5.25;2.95;;;;;;;-6.42;77.38;97910.28;4860440;29;20057;-59
2021/12/26 06:58:04;;;;;;;5.38;3.58;;;;;;;-6.41;77.71;97916.19;4867193;29;20081;-61
2021/12/26 07:00:30;;;;;;;6.85;3.30;;;;;;;-6.57;78.39;97917.56;4871879;29;20029;-60
2021/12/26 07:02:56;;;;;;;5.18;3.40;;;;;;;-6.47;78.71;97921.97;4861163;29;20038;-61
2021/12/26 07:05:21;;;;;;;6.63;3.45;;;;;;;-6.36;78.23;97921.31;4870559;29;20370;-60
2021/12/26 07:07:47;;;;;;;4.88;3.35;;;;;;;-6.42;77.89;97906.94;4871773;29;20066;-60
2021/12/26 07:10:13;;;;;;;6.22;3.55;;;;;;;-6.45;76.86;97914.44;4871672;29;20060;-59
2021/12/26 07:12:39;;;;;;;6.78;3.38;;;;;;;-6.43;77.26;97908.63;4854708;29;20084;-59
2021/12/26 07:15:06;;;;;;;6.13;3.20;;;;;;;-6.34;77.37;97909.56;4871763;29;20030;-60
2021/12/26 07:17:31;;;;;;;5.72;3.13;;;;;;;-6.44;77.03;97893.47;4871568;29;20021;-59
2021/12/26 07:19:57;;;;;;;4.05;2.85;;;;;;;-6.50;77.45;97901.78;4871351;29;20104;-60
2021/12/26 07:22:22;;;;;;;4.68;3.13;;;;;;;-6.51;78.04;97905.13;4871501;29;20280;-59
2021/12/26 07:24:48;;;;;;;6.53;3.47;;;;;;;-6.44;78.22;97908.56;4870320;29;20052;-59
2021/12/26 07:27:14;;;;;;;3.88;3.08;;;;;;;-6.42;77.17;97891.84;4871348;29;20021;-60
2021/12/26 07:29:40;;;;;;;4.93;3.22;;;;;;;-6.33;76.72;97897.00;4840268;29;20040;-59
2021/12/26 07:32:07;;;;;;;7.13;3.47;;;;;;;-6.31;76.63;97902.09;4871093;29;20057;-59
2021/12/26 07:34:33;;;;;;;6.93;3.20;;;;;;;-6.27;75.85;97906.34;4857866;29;20041;-60
2021/12/26 07:36:59;;;;;;;6.20;3.38;;;;;;;-6.20;76.50;97903.09;4855166;29;20105;-59
2021/12/26 07:39:25;;;;;;;5.55;3.47;;;;;;;-6.26;76.61;97893.75;4871631;29;20029;-59
2021/12/26 07:41:51;;;;;;;6.32;3.17;;;;;;;-6.24;74.44;97898.84;4871054;29;20062;-61
2021/12/26 07:44:16;;;;;;;5.38;2.53;;;;;;;-6.15;75.19;97896.47;4870184;29;20053;-59
2021/12/26 07:46:42;;;;;;;4.38;2.85;;;;;;;-5.99;74.83;97886.63;4870878;29;20040;-59
2021/12/26 07:49:07;;;;;;;6.00;2.95;;;;;;;-6.00;75.23;97902.56;4855316;29;20106;-59
2021/12/26 07:51:33;;;;;;;6.80;3.03;;;;;;;-6.04;74.94;97911.75;4871017;29;20386;-60
2021/12/26 07:54:01;;;;;;;5.38;2.88;;;;;;;-6.10;73.71;97878.91;4870841;29;20532;-60
2021/12/26 07:56:27;;;;;;;7.00;3.17;;;;;;;-6.16;74.32;97881.34;4854664;29;20108;-59
2021/12/26 07:58:53;;;;;;;5.18;3.10;;;;;;;-6.21;74.38;97883.78;4853375;29;20049;-59
2021/12/26 08:01:19;;;;;;;4.05;2.78;;;;;;;-6.05;73.94;97881.50;4870744;29;20040;-60
2021/12/26 08:03:46;;;;;;;8.95;2.65;;;;;;;-6.15;74.91;97886.38;4861403;29;20038;-60
2021/12/26 08:06:16;;;;;;;5.30;3.08;;;;;;;-6.09;74.65;97875.56;4854106;29;20322;-59
2021/12/26 08:08:42;;;;;;;4.07;2.78;;;;;;;-6.05;74.36;97892.41;4869545;29;20029;-59
2021/12/26 08:11:08;;;;;;;4.20;2.80;;;;;;;-6.15;75.19;97866.25;4870461;29;20267;-60
2021/12/26 08:13:34;;;;;;;6.38;3.45;;;;;;;-5.99;75.26;97877.38;4870300;29;20033;-60
2021/12/26 08:16:00;;;;;;;6.22;2.90;;;;;;;-5.84;74.62;97878.41;4870731;29;20268;-60
2021/12/26 08:18:26;;;;;;;5.18;2.72;;;;;;;-5.88;74.03;97869.97;4870535;29;20037;-59
2021/12/26 08:20:51;;;;;;;7.05;3.40;;;;;;;-5.98;75.86;97873.22;4870056;29;20022;-60
2021/12/26 08:23:17;;;;;;;5.63;3.75;;;;;;;-5.97;74.57;97869.84;4868710;29;20030;-59
2021/12/26 08:25:42;;;;;;;12.48;4.35;;;;;;;-5.86;76.43;97869.97;4853213;29;20041;-59
2021/12/26 08:28:08;;;;;;;6.97;3.50;;;;;;;-5.81;75.45;97869.22;4865474;29;20048;-58
2021/12/26 08:30:34;;;;;;;6.40;3.53;;;;;;;-5.80;75.00;97870.06;4869013;29;20034;-59
2021/12/26 08:33:05;;;;;;;6.57;3.20;;;;;;;-5.80;74.98;97863.38;4853860;29;20104;-58
2021/12/26 08:35:32;;;;;;;5.55;3.22;;;;;;;-5.75;75.67;97860.91;4869827;29;20045;-59
2021/12/26 08:37:58;;;;;;;5.05;3.28;;;;;;;-5.79;74.90;97869.25;4869319;29;20350;-60
2021/12/26 08:40:23;;;;;;;8.00;3.55;;;;;;;-5.73;74.61;97870.19;4869579;29;20053;-59
2021/12/26 08:42:49;;;;;;;5.85;3.42;;;;;;;-5.66;75.18;97857.66;4868724;29;20086;-60
2021/12/26 08:45:14;;;;;;;8.32;3.20;;;;;;;-5.80;75.50;97862.50;4868542;29;20030;-59
2021/12/26 08:47:41;;;;;;;4.88;3.55;;;;;;;-5.85;78.17;97854.88;4851772;29;20030;-60
2021/12/26 08:50:09;;;;;;;4.25;3.13;;;;;;;-5.84;76.96;97856.59;4855692;29;20026;-59
2021/12/26 08:52:35;;;;;;;7.20;3.65;;;;;;;-5.81;75.71;97843.19;4867677;29;20290;-59
2021/12/26 08:55:01;;;;;;;7.55;3.83;;;;;;;-5.75;76.39;97849.13;4864394;29;20073;-59
2021/12/26 08:57:29;;;;;;;6.07;3.75;;;;;;;-5.59;75.65;97841.78;4852620;29;20037;-59
2021/12/26 08:59:54;;;;;;;5.43;3.60;;;;;;;-5.64;75.99;97829.13;4867866;29;20457;-59
2021/12/26 09:02:20;;;;;;;6.65;3.72;;;;;;;-5.83;75.97;97830.53;4868756;29;20041;-60
2021/12/26 09:04:45;;;;;;;6.38;4.68;;;;;;;-5.60;76.30;97837.56;4868603;29;20069;-59
2021/12/26 09:07:11;;;;;;;8.27;4.20;;;;;;;-5.55;77.08;97833.44;4868919;29;20253;-59
2021/12/26 09:09:37;;;;;;;3.97;3.17;;;;;;;-5.70;76.81;97825.66;4853076;29;20059;-61
2021/12/26 09:12:04;;;;;;;8.27;3.65;;;;;;;-5.72;76.82;97829.00;4868944;29;20105;-58
2021/12/26 09:14:30;;;;;;;6.05;3.70;;;;;;;-5.71;78.14;97822.31;4868938;29;20344;-60
2021/12/26 09:16:57;;;;;;;5.75;3.17;;;;;;;-6.10;76.14;97779.00;4868269;29;20030;-60
2021/12/26 09:19:23;;;;;;;5.18;3.40;;;;;;;-5.72;77.31;97818.91;4868928;29;20037;-60
2021/12/26 09:21:50;;;;;;;4.63;3.25;;;;;;;-5.93;78.17;97821.16;4854959;29;20038;-60
2021/12/26 09:24:15;;;;;;;7.38;3.40;;;;;;;-5.99;76.64;97823.63;4850409;29;20033;-60
2021/12/26 09:26:41;;;;;;;6.03;3.40;;;;;;;-5.92;78.27;97808.56;4868805;29;20030;-61
2021/12/26 09:29:06;;;;;;;6.50;3.72;;;;;;;-5.72;77.35;97810.53;4852723;29;20029;-60
2021/12/26 09:31:32;;;;;;;7.13;3.70;;;;;;;-5.78;76.19;97805.41;4868736;29;20322;-60
2021/12/26 09:33:58;;;;;;;4.75;3.38;;;;;;;-5.67;76.75;97793.78;4868568;29;20266;-60
2021/12/26 09:36:23;;;;;;;6.15;4.13;;;;;;;-5.64;75.71;97803.91;4868850;29;20033;-60
2021/12/26 09:38:49;;;;;;;7.07;3.60;;;;;;;-5.70;76.25;97802.97;4868660;29;20037;-61
2021/12/26 09:41:15;;;;;;;5.65;3.53;;;;;;;-5.65;75.99;97801.38;4828448;29;1217307;-61
2021/12/26 09:43:40;;;;;;;6.28;3.83;;;;;;;-5.65;76.06;97799.69;4852772;29;20061;-59
2021/12/26 09:46:06;;;;;;;7.13;3.63;;;;;;;-5.82;77.31;97793.59;4868258;29;20049;-58
2021/12/26 09:48:32;;;;;;;4.85;3.35;;;;;;;-5.79;77.14;97793.63;4868840;29;20078;-59
2021/12/26 09:50:58;;;;;;;5.63;3.40;;;;;;;-5.71;76.26;97794.56;4869997;29;20041;-59
2021/12/26 09:53:23;;;;;;;8.00;3.50;;;;;;;-5.72;76.58;97795.41;4870393;29;20251;-60
2021/12/26 09:55:50;;;;;;;9.38;3.97;;;;;;;-5.80;76.94;97795.31;4865550;29;20037;-60
2021/12/26 09:58:15;;;;;;;6.68;3.80;;;;;;;-5.70;76.91;97792.88;4873215;29;20025;-59
2021/12/26 10:00:43;;;;;;;7.68;3.92;;;;;;;-5.60;76.74;97779.56;4873016;29;20041;-61
2021/12/26 10:03:30;;;;;;;6.00;3.80;;;;;;;-5.50;77.50;97786.44;4873070;29;20025;-61
2021/12/26 10:06:05;;;;;;;6.97;3.80;;;;;;;-6.05;77.00;97711.03;4841874;29;20033;-60
2021/12/26 10:08:33;;;;;;;6.18;3.90;;;;;;;-5.46;77.89;97788.13;4869647;29;20409;-59
2021/12/26 10:11:27;;;;;;;5.82;3.58;;;;;;;-5.47;77.62;97770.47;4872878;29;20021;-61
2021/12/26 10:14:05;;;;;;;6.93;3.80;;;;;;;-5.94;76.64;97711.97;4865070;29;20121;-61
2021/12/26 10:16:35;;;;;;;7.82;3.53;;;;;;;-5.54;77.04;97762.00;4856535;29;20034;-60
2021/12/26 10:19:04;;;;;;;5.30;3.17;;;;;;;-5.52;75.28;97774.63;4873039;29;20088;-61
2021/12/26 10:21:45;;;;;;;6.10;2.75;;;;;;;-5.98;74.94;97704.41;4873073;29;20025;-61
2021/12/26 10:24:25;;;;;;;5.60;3.25;;;;;;;-5.51;76.38;97768.75;4872349;29;20041;-61
2021/12/26 10:26:55;;;;;;;6.10;3.47;;;;;;;-5.47;76.49;97783.94;4873297;29;20032;-61
2021/12/26 10:29:27;;;;;;;9.03;3.10;;;;;;;-5.99;74.59;97695.97;4871948;29;20222;-60
2021/12/26 10:31:59;;;;;;;7.15;3.80;;;;;;;-5.88;75.82;97698.59;4872670;29;20535;-62
2021/12/26 10:34:45;;;;;;;7.95;4.32;;;;;;;-5.54;75.82;97762.00;4871800;29;20326;-61
2021/12/26 10:37:14;;;;;;;5.70;3.50;;;;;;;-5.68;74.24;97749.22;4849101;29;20155;-60
2021/12/26 10:39:49;;;;;;;8.57;3.78;;;;;;;-5.75;75.50;97750.00;4871101;29;20056;-62
2021/12/26 10:42:45;;;;;;;6.47;3.92;;;;;;;-5.62;74.96;97766.09;4862270;29;20094;-59
2021/12/26 10:45:16;;;;;;;5.25;3.28;;;;;;;-5.48;74.27;97731.81;4857730;29;20080;-60
2021/12/26 10:47:44;;;;;;;5.83;3.60;;;;;;;-5.48;75.70;97720.88;4872102;29;20033;-61
2021/12/26 10:50:11;;;;;;;7.30;3.13;;;;;;;-5.40;73.36;97731.88;4871912;29;20477;-60
2021/12/26 10:52:48;;;;;;;5.82;3.40;;;;;;;-5.47;74.91;97755.34;4878623;29;20048;-60
2021/12/26 10:55:17;;;;;;;5.53;3.78;;;;;;;-5.64;73.49;97705.59;4879828;29;20037;-61
2021/12/26 10:57:46;;;;;;;6.05;3.58;;;;;;;-5.44;76.31;97715.03;4871817;29;20025;-61
2021/12/26 11:00:34;;;;;;;7.05;3.50;;;;;;;-5.79;74.25;97660.03;4871322;29;20094;-62
2021/12/26 11:03:04;;;;;;;5.38;3.20;;;;;;;-5.56;74.47;97715.75;4870498;29;20061;-60
2021/12/26 11:05:45;;;;;;;5.15;3.30;;;;;;;-5.81;73.57;97665.06;4871254;29;20037;-61
2021/12/26 11:08:17;;;;;;;4.63;3.38;;;;;;;-5.58;75.10;97727.50;4871674;29;20117;-62
2021/12/26 11:10:44;;;;;;;5.80;3.40;;;;;;;-5.60;75.18;97707.31;4871130;29;20116;-60
2021/12/26 11:13:28;;;;;;;5.70;3.75;;;;;;;-5.59;73.71;97723.28;4871090;29;20037;-63
2021/12/26 11:15:58;;;;;;;6.75;3.00;;;;;;;-5.53;74.93;97699.81;4865226;29;20036;-60
2021/12/26 11:18:24;;;;;;;5.18;3.15;;;;;;;-5.39;75.00;97714.25;4865975;29;20030;-62
2021/12/26 11:20:51;;;;;;;9.02;3.50;;;;;;;-5.34;75.87;97715.94;4863714;29;20029;-60
2021/12/26 11:23:24;;;;;;;6.95;3.33;;;;;;;-5.63;76.57;97639.22;4870185;29;20065;-59
2021/12/26 11:25:56;;;;;;;9.05;3.30;;;;;;;-5.35;75.09;97687.38;4850874;29;20061;-62
2021/12/26 11:28:26;;;;;;;5.53;3.47;;;;;;;-5.08;75.88;97722.09;4856243;29;20247;-58
2021/12/26 11:30:55;;;;;;;6.87;4.00;;;;;;;-5.13;76.53;97702.69;4852957;29;20098;-59
2021/12/26 11:33:21;;;;;;;4.90;3.30;;;;;;;-5.32;75.27;97694.97;4865532;29;20037;-59
2021/12/26 11:35:51;;;;;;;4.20;3.22;;;;;;;-5.51;75.86;97690.59;4865562;29;20218;-60
2021/12/26 11:38:20;;;;;;;4.90;3.20;;;;;;;-5.41;75.50;97702.47;4855274;29;20036;-60